createdAt,value
2022-11-22T00:00:43.537Z,99319.13
2022-11-22T00:03:10.505Z,99314.25
2022-11-22T00:05:37.570Z,99309.91
2022-11-22T00:08:05.117Z,99304.44
2022-11-22T00:10:32.699Z,99299.25
2022-11-22T00:13:00.201Z,99306.84
2022-11-22T00:15:27.148Z,99305.19
2022-11-22T00:17:53.807Z,99304.31
2022-11-22T00:20:23.381Z,99299.78
2022-11-22T00:22:50.062Z,99290.41
2022-11-22T00:25:17.050Z,99288.47
2022-11-22T00:27:44.595Z,99284.91
2022-11-22T00:30:11.927Z,99282.16
2022-11-22T00:32:38.567Z,99281.41
2022-11-22T00:35:06.265Z,99272.31
2022-11-22T00:37:33.317Z,99274.53
2022-11-22T00:40:00.018Z,99282.03
2022-11-22T00:42:26.696Z,99284.69
2022-11-22T00:44:53.344Z,99270.19
2022-11-22T00:47:20.043Z,99260.69
2022-11-22T00:49:46.788Z,99266.84
2022-11-22T00:52:13.719Z,99262.16
2022-11-22T00:54:40.421Z,99264.47
2022-11-22T00:57:07.265Z,99263.00
2022-11-22T00:59:34.035Z,99262.56
2022-11-22T01:02:00.781Z,99269.34
2022-11-22T01:04:27.676Z,99271.75
2022-11-22T01:06:54.447Z,99275.97
2022-11-22T01:09:24.388Z,99282.13
2022-11-22T01:11:54.721Z,99278.09
2022-11-22T01:14:21.803Z,99259.50
2022-11-22T01:16:48.743Z,99272.91
2022-11-22T01:19:16.009Z,99261.09
2022-11-22T01:21:43.382Z,99253.72
2022-11-22T01:24:13.152Z,99261.19
2022-11-22T01:26:42.325Z,99259.59
2022-11-22T01:29:08.956Z,99254.31
2022-11-22T01:31:35.637Z,99244.19
2022-11-22T01:34:05.615Z,99251.25
2022-11-22T01:36:32.495Z,99243.34
2022-11-22T01:38:59.201Z,99243.16
2022-11-22T01:41:26.089Z,99238.88
2022-11-22T01:43:52.741Z,99238.56
2022-11-22T01:46:37.220Z,99234.03
2022-11-22T01:49:31.194Z,99230.63
2022-11-22T01:52:12.204Z,99242.81
2022-11-22T01:54:45.409Z,99240.78
2022-11-22T01:57:23.965Z,99238.28
2022-11-22T02:00:02.074Z,99235.41
2022-11-22T02:02:28.964Z,99240.13
2022-11-22T02:05:02.424Z,99236.09
2022-11-22T02:07:49.594Z,99237.88
2022-11-22T02:10:20.807Z,99237.78
2022-11-22T02:12:51.798Z,99230.69
2022-11-22T02:15:18.779Z,99218.22
2022-11-22T02:17:45.621Z,99222.66
2022-11-22T02:20:13.241Z,99214.50
2022-11-22T02:23:02.350Z,99204.66
2022-11-22T02:26:00.179Z,99216.81
2022-11-22T02:28:37.887Z,99223.81
2022-11-22T02:31:04.575Z,99222.09
2022-11-22T02:33:31.439Z,99222.84
2022-11-22T02:35:59.743Z,99221.91
2022-11-22T02:38:35.377Z,99220.19
2022-11-22T02:41:08.789Z,99210.59
2022-11-22T02:43:45.899Z,99201.59
2022-11-22T02:46:20.628Z,99206.03
2022-11-22T02:48:48.460Z,99197.22
2022-11-22T02:51:20.099Z,99195.31
2022-11-22T02:53:50.704Z,99198.59
2022-11-22T02:56:20.117Z,99181.91
2022-11-22T02:58:46.919Z,99185.88
2022-11-22T03:01:13.946Z,99181.44
2022-11-22T03:03:43.918Z,99175.63
2022-11-22T03:06:10.658Z,99171.19
2022-11-22T03:08:37.375Z,99166.75
2022-11-22T03:11:04.095Z,99157.53
2022-11-22T03:13:30.824Z,99167.16
2022-11-22T03:15:57.464Z,99170.84
2022-11-22T03:18:24.103Z,99165.47
2022-11-22T03:20:50.709Z,99168.94
2022-11-22T03:23:17.495Z,99170.75
2022-11-22T03:25:44.204Z,99178.03
2022-11-22T03:28:10.983Z,99177.94
2022-11-22T03:30:42.289Z,99184.06
2022-11-22T03:33:11.995Z,99181.44
2022-11-22T03:35:39.047Z,99179.75
2022-11-22T03:38:07.044Z,99181.44
2022-11-22T03:40:34.745Z,99177.75
2022-11-22T03:43:04.215Z,99171.97
2022-11-22T03:45:31.307Z,99164.03
2022-11-22T03:47:57.960Z,99150.22
2022-11-22T03:50:25.927Z,99144.31
2022-11-22T03:52:52.658Z,99144.19
2022-11-22T03:55:19.650Z,99142.38
2022-11-22T03:57:49.315Z,99151.16
2022-11-22T04:00:18.981Z,99132.66
2022-11-22T04:02:45.585Z,99135.19
2022-11-22T04:05:12.246Z,99127.34
2022-11-22T04:07:41.194Z,99121.84
2022-11-22T04:10:08.699Z,99121.84
2022-11-22T04:12:36.097Z,99125.34
2022-11-22T04:15:08.247Z,99131.22
2022-11-22T04:17:44.630Z,99131.94
2022-11-22T04:20:40.401Z,99128.59
2022-11-22T04:23:20.275Z,99126.66
2022-11-22T04:25:54.485Z,99118.28
2022-11-22T04:28:35.253Z,99118.03
2022-11-22T04:31:32.768Z,99122.38
2022-11-22T04:33:59.407Z,99117.00
2022-11-22T04:36:26.031Z,99115.66
2022-11-22T04:38:55.798Z,99103.91
2022-11-22T04:41:22.406Z,99122.31
2022-11-22T04:44:07.578Z,99113.50
2022-11-22T04:46:34.560Z,99114.75
2022-11-22T04:49:01.272Z,99119.19
2022-11-22T04:51:46.400Z,99124.34
2022-11-22T04:54:12.967Z,99128.69
2022-11-22T04:56:40.078Z,99130.38
2022-11-22T04:59:06.777Z,99132.56
2022-11-22T05:01:33.520Z,99123.16
2022-11-22T05:04:03.298Z,99125.34
2022-11-22T05:06:30.091Z,99127.03
2022-11-22T05:08:59.608Z,99117.16
2022-11-22T05:11:26.275Z,99130.88
2022-11-22T05:13:52.908Z,99130.03
2022-11-22T05:16:19.625Z,99124.41
2022-11-22T05:19:00.624Z,99126.69
2022-11-22T05:21:29.945Z,99133.91
2022-11-22T05:23:57.217Z,99147.78
2022-11-22T05:26:31.542Z,99161.00
2022-11-22T05:29:02.636Z,99172.34
2022-11-22T05:31:29.456Z,99152.94
2022-11-22T05:33:57.547Z,99141.16
2022-11-22T05:36:24.954Z,99136.47
2022-11-22T05:38:52.245Z,99139.69
2022-11-22T05:41:19.841Z,99147.28
2022-11-22T05:43:49.003Z,99133.09
2022-11-22T05:46:24.800Z,99127.44
2022-11-22T05:48:54.775Z,99126.81
2022-11-22T06:10:13.220Z,99134.38
2022-11-22T06:12:40.112Z,99136.81
2022-11-22T06:15:07.959Z,99134.88
2022-11-22T06:17:34.690Z,99134.16
2022-11-22T07:05:58.429Z,99141.47
2022-11-22T07:08:25.358Z,99135.06
2022-11-22T07:21:42.221Z,99139.91
2022-11-22T07:24:09.142Z,99138.78
2022-11-22T07:26:35.979Z,99137.22
2022-11-22T07:29:02.867Z,99146.97
2022-11-22T07:47:37.825Z,99144.03
2022-11-22T08:25:38.750Z,99133.13
2022-11-22T08:28:05.628Z,99130.56
2022-11-22T08:30:32.484Z,99130.47
2022-11-22T08:32:59.195Z,99129.34
2022-11-22T08:35:25.810Z,99127.66
2022-11-22T08:37:57.487Z,99132.47
2022-11-22T08:54:07.961Z,99142.69
2022-11-22T08:59:16.096Z,99143.53
2022-11-22T09:01:42.933Z,99144.75
2022-11-22T09:04:09.623Z,99149.56
2022-11-22T09:09:36.915Z,99155.00
2022-11-22T09:22:50.640Z,99152.72
2022-11-22T10:15:51.117Z,99171.91
2022-11-22T10:18:39.610Z,99176.00
2022-11-22T10:21:13.840Z,99171.06
2022-11-22T10:23:45.762Z,99168.41
2022-11-22T10:26:26.487Z,99170.44
2022-11-22T10:29:24.773Z,99164.16
2022-11-22T10:32:37.275Z,99162.94
2022-11-22T10:35:34.580Z,99165.47
2022-11-22T10:38:38.451Z,99172.44
2022-11-22T10:42:03.464Z,99174.78
2022-11-22T10:44:58.242Z,99164.28
2022-11-22T10:48:01.929Z,99164.59
2022-11-22T10:50:52.179Z,99163.50
2022-11-22T10:54:20.308Z,99176.78
2022-11-22T10:57:08.673Z,99171.53
2022-11-22T11:00:22.627Z,99174.75
2022-11-22T11:03:17.145Z,99178.34
2022-11-22T11:06:21.762Z,99169.53
2022-11-22T11:11:43.933Z,99172.34
2022-11-22T11:14:40.946Z,99181.56
2022-11-22T11:17:08.005Z,99162.41
2022-11-22T11:19:44.289Z,99168.28
2022-11-22T11:22:51.535Z,99172.50
2022-11-22T11:25:43.191Z,99178.13
2022-11-22T11:28:27.556Z,99176.44
2022-11-22T11:31:01.607Z,99178.25
2022-11-22T11:33:34.985Z,99175.59
2022-11-22T11:36:22.284Z,99170.25
2022-11-22T11:38:57.627Z,99172.91
2022-11-22T11:41:38.671Z,99167.72
2022-11-22T11:44:33.145Z,99171.88
2022-11-22T11:47:01.019Z,99173.38
2022-11-22T11:49:36.360Z,99178.47
2022-11-22T11:52:22.064Z,99186.44
2022-11-22T11:54:56.731Z,99176.31
2022-11-22T11:57:35.767Z,99192.00
2022-11-22T12:00:21.603Z,99193.09
2022-11-22T12:02:50.692Z,99196.63
2022-11-22T12:05:17.644Z,99195.75
2022-11-22T12:07:50.044Z,99198.66
2022-11-22T12:10:32.131Z,99188.75
2022-11-22T12:13:21.284Z,99196.47
2022-11-22T12:16:01.399Z,99194.53
2022-11-22T12:18:43.494Z,99196.47
2022-11-22T12:21:35.238Z,99199.13
2022-11-22T12:27:14.726Z,99199.13
2022-11-22T12:35:45.774Z,99189.97
2022-11-22T12:38:44.171Z,99194.19
2022-11-22T12:53:27.763Z,99191.81
2022-11-22T12:56:33.409Z,99186.03
2022-11-22T12:59:49.469Z,99185.19
2022-11-22T13:02:29.771Z,99186.16
2022-11-22T13:05:09.557Z,99181.81
2022-11-22T13:07:36.223Z,99190.03
2022-11-22T13:10:26.312Z,99184.84
2022-11-22T13:12:59.655Z,99180.53
2022-11-22T13:15:42.218Z,99172.69
2022-11-22T13:18:11.071Z,99169.78
2022-11-22T13:30:28.041Z,99174.00
2022-11-22T13:33:00.945Z,99179.16
2022-11-22T13:35:38.547Z,99183.63
2022-11-22T13:59:19.012Z,99175.88
2022-11-22T14:01:47.977Z,99177.69
2022-11-22T14:04:19.779Z,99172.50
2022-11-22T14:07:06.965Z,99165.53
2022-11-22T14:09:54.783Z,99170.13
2022-11-22T14:12:46.492Z,99179.88
2022-11-22T14:15:28.691Z,99172.78
2022-11-22T14:18:51.319Z,99176.97
2022-11-22T14:21:44.602Z,99177.22
2022-11-22T14:25:03.539Z,99175.66
2022-11-22T14:28:17.708Z,99170.69
2022-11-22T14:30:51.763Z,99176.72
2022-11-22T14:36:08.426Z,99181.44
2022-11-22T14:38:40.717Z,99189.41
2022-11-22T14:41:26.387Z,99192.75
2022-11-22T14:52:33.184Z,99198.72
2022-11-22T14:55:06.223Z,99191.59
2022-11-22T14:57:37.503Z,99200.66
2022-11-22T15:00:13.748Z,99198.59
2022-11-22T15:03:41.754Z,99204.88
2022-11-22T15:09:11.861Z,99208.63
2022-11-22T15:10:10.980Z,99224.44
2022-11-22T15:13:33.360Z,99216.47
2022-11-22T15:57:49.513Z,99236.72
2022-11-22T16:00:29.504Z,99231.19
2022-11-22T16:03:02.904Z,99241.91
2022-11-22T16:06:07.875Z,99238.44
2022-11-22T16:16:37.008Z,99244.22
2022-11-22T16:25:34.611Z,99246.28
2022-11-22T16:28:38.193Z,99234.81
2022-11-22T16:31:24.665Z,99241.69
2022-11-22T16:33:54.321Z,99255.50
2022-11-22T16:36:25.897Z,99251.03
2022-11-22T16:41:35.385Z,99255.25
2022-11-22T16:44:12.691Z,99246.31
2022-11-22T16:49:22.843Z,99247.56
2022-11-22T16:51:51.561Z,99251.28
2022-11-22T16:54:21.240Z,99244.41
2022-11-22T16:56:48.123Z,99253.47
2022-11-22T16:59:14.873Z,99245.63
2022-11-22T17:01:44.224Z,99248.28
2022-11-22T17:04:24.967Z,99253.72
2022-11-22T17:06:53.186Z,99246.72
2022-11-22T17:09:20.076Z,99244.22
2022-11-22T17:11:50.550Z,99240.69
2022-11-22T17:14:19.794Z,99237.56
2022-11-22T17:16:49.281Z,99237.69
2022-11-22T17:19:45.702Z,99250.25
2022-11-22T17:22:07.114Z,99246.03
2022-11-22T17:24:34.551Z,99238.94
2022-11-22T17:27:01.386Z,99250.59
2022-11-22T17:29:49.340Z,99253.75
2022-11-22T17:34:55.529Z,99249.75
2022-11-22T17:37:24.691Z,99252.75
2022-11-22T17:39:51.936Z,99251.06
2022-11-22T17:42:20.109Z,99250.81
2022-11-22T17:44:50.066Z,99257.09
2022-11-22T17:47:19.322Z,99256.25
2022-11-22T17:49:49.007Z,99263.50
2022-11-22T17:57:41.636Z,99276.03
2022-11-22T18:00:09.417Z,99281.19
2022-11-22T18:02:36.172Z,99288.31
2022-11-22T18:05:08.206Z,99286.38
2022-11-22T18:07:34.975Z,99298.56
2022-11-22T18:10:02.591Z,99291.44
2022-11-22T18:12:29.260Z,99297.97
2022-11-22T18:14:55.970Z,99300.38
2022-11-22T18:17:26.600Z,99302.06
2022-11-22T18:19:53.248Z,99297.72
2022-11-22T18:22:26.274Z,99304.34
2022-11-22T18:24:53.304Z,99312.44
2022-11-22T18:27:23.131Z,99311.47
2022-11-22T18:29:49.857Z,99311.22
2022-11-22T18:32:31.867Z,99308.56
2022-11-22T18:34:58.561Z,99313.88
2022-11-22T18:37:25.451Z,99323.41
2022-11-22T18:39:52.172Z,99310.38
2022-11-22T18:45:00.511Z,99329.66
2022-11-22T18:52:54.034Z,99327.00
2022-11-22T18:55:20.919Z,99323.53
2022-11-22T18:57:53.170Z,99315.66
2022-11-22T19:03:02.591Z,99318.59
2022-11-22T19:05:32.332Z,99321.97
2022-11-22T19:07:58.910Z,99318.31
2022-11-22T19:10:25.518Z,99309.78
2022-11-22T19:12:52.228Z,99310.63
2022-11-22T19:15:19.029Z,99297.00
2022-11-22T19:17:45.632Z,99297.47
2022-11-22T19:20:32.187Z,99301.94
2022-11-22T19:22:59.434Z,99307.25
2022-11-22T19:25:29.190Z,99312.66
2022-11-22T19:27:55.841Z,99310.28
2022-11-22T19:30:31.637Z,99320.63
2022-11-22T19:32:58.284Z,99309.28
2022-11-22T19:35:36.376Z,99312.09
2022-11-22T19:38:03.331Z,99311.25
2022-11-22T19:40:30.030Z,99318.97
2022-11-22T19:42:56.975Z,99314.84
2022-11-22T19:45:41.961Z,99315.94
2022-11-22T19:48:08.580Z,99316.78
2022-11-22T19:50:38.843Z,99315.22
2022-11-22T19:53:08.171Z,99316.22
2022-11-22T19:55:45.126Z,99321.63
2022-11-22T19:58:12.349Z,99321.50
2022-11-22T20:00:39.110Z,99319.69
2022-11-22T20:03:06.024Z,99326.94
2022-11-22T20:05:34.556Z,99329.59
2022-11-22T20:08:01.187Z,99317.16
2022-11-22T20:10:27.804Z,99307.63
2022-11-22T20:12:56.882Z,99305.97
2022-11-22T20:15:23.802Z,99305.97
2022-11-22T20:17:50.416Z,99303.78
2022-11-22T20:25:41.236Z,99304.88
2022-11-22T20:28:10.083Z,99308.81
2022-11-22T20:30:36.678Z,99308.97
2022-11-22T20:33:03.345Z,99310.66
2022-11-22T20:35:29.952Z,99299.31
2022-11-22T20:37:56.627Z,99308.25
2022-11-22T20:40:26.517Z,99304.34
2022-11-22T20:42:53.122Z,99306.16
2022-11-22T20:45:19.822Z,99319.22
2022-11-22T20:47:46.581Z,99320.16
2022-11-22T20:50:13.558Z,99335.84
2022-11-22T20:52:40.221Z,99326.91
2022-11-22T20:55:10.733Z,99334.50
2022-11-22T20:57:38.370Z,99319.56
2022-11-22T21:00:08.839Z,99326.28
2022-11-22T21:02:36.206Z,99329.94
2022-11-22T21:05:03.150Z,99320.88
2022-11-22T21:07:29.842Z,99316.41
2022-11-22T21:09:56.673Z,99317.84
2022-11-22T21:12:28.773Z,99315.31
2022-11-22T21:14:55.594Z,99310.00
2022-11-22T21:17:55.578Z,99316.75
2022-11-22T21:20:10.286Z,99316.88
2022-11-22T21:22:37.021Z,99311.69
2022-11-22T21:25:04.335Z,99321.34
2022-11-22T21:27:31.128Z,99321.34
2022-11-22T21:29:58.375Z,99322.88
2022-11-22T21:32:25.190Z,99317.47
2022-11-22T21:34:51.881Z,99327.72
2022-11-22T21:37:18.532Z,99332.31
2022-11-22T21:39:48.227Z,99341.00
2022-11-22T21:42:14.814Z,99331.94
2022-11-22T21:44:42.210Z,99321.19
2022-11-22T21:47:08.941Z,99327.34
2022-11-22T21:49:35.597Z,99323.00
2022-11-22T21:52:02.259Z,99324.69
2022-11-22T21:54:29.125Z,99326.50
2022-11-22T21:56:59.898Z,99322.75
2022-11-22T21:59:29.668Z,99332.53
2022-11-22T22:01:59.957Z,99343.88
2022-11-22T22:04:26.691Z,99348.19
2022-11-22T22:06:53.404Z,99337.47
2022-11-22T22:09:20.103Z,99335.41
2022-11-22T22:11:47.793Z,99325.75
2022-11-22T22:14:15.342Z,99318.75
2022-11-22T22:16:42.399Z,99328.03
2022-11-22T22:19:10.507Z,99328.03
2022-11-22T22:21:37.083Z,99322.72
2022-11-22T22:24:04.135Z,99320.91
2022-11-22T22:26:32.223Z,99328.47
2022-11-22T22:28:58.881Z,99327.66
2022-11-22T22:31:26.855Z,99325.00
2022-11-22T22:33:56.894Z,99332.00
2022-11-22T22:36:26.812Z,99335.22
2022-11-22T22:38:55.106Z,99335.22
2022-11-22T22:41:22.201Z,99330.06
2022-11-22T22:43:49.801Z,99333.41
2022-11-22T22:46:20.903Z,99334.13
2022-11-22T22:48:49.578Z,99328.81
2022-11-22T22:51:32.369Z,99322.56
2022-11-22T22:54:01.457Z,99318.69
2022-11-22T22:56:31.252Z,99327.22
2022-11-22T22:59:00.826Z,99331.69
2022-11-22T23:01:31.676Z,99326.38
2022-11-22T23:04:01.479Z,99336.03
2022-11-22T23:06:37.993Z,99340.66
2022-11-22T23:09:10.920Z,99336.91
2022-11-22T23:11:57.092Z,99327.38
2022-11-22T23:14:29.251Z,99337.00
2022-11-22T23:16:58.214Z,99328.78
2022-11-22T23:19:27.633Z,99337.47
2022-11-22T23:21:55.674Z,99346.66
2022-11-22T23:24:22.350Z,99352.94
2022-11-22T23:26:49.135Z,99357.56
2022-11-22T23:29:15.932Z,99354.78
2022-11-22T23:31:42.515Z,99354.41
2022-11-22T23:34:11.648Z,99346.28
2022-11-22T23:36:41.010Z,99346.44
2022-11-22T23:39:09.171Z,99333.00
2022-11-22T23:41:35.848Z,99337.47
2022-11-22T23:44:03.559Z,99333.25
2022-11-22T23:46:30.336Z,99338.19
2022-11-22T23:49:01.108Z,99332.88
2022-11-22T23:51:31.785Z,99331.59
2022-11-22T23:54:05.732Z,99331.44
2022-11-22T23:56:35.234Z,99335.81
2022-11-22T23:59:05.015Z,99330.59
